createdAt,value
2023-01-26T00:00:00.203Z,92.30
2023-01-26T00:01:00.156Z,94.50
2023-01-26T00:02:00.116Z,92.10
2023-01-26T00:03:00.106Z,91.50
2023-01-26T00:04:00.110Z,93.30
2023-01-26T00:04:59.971Z,93.30
2023-01-26T00:05:59.923Z,90.60
2023-01-26T00:06:59.877Z,92.60
2023-01-26T00:07:59.829Z,96.80
2023-01-26T00:08:59.791Z,89.10
2023-01-26T00:09:59.745Z,90.50
2023-01-26T00:10:59.683Z,88.10
2023-01-26T00:11:59.650Z,88.70
2023-01-26T00:12:59.595Z,91.90
2023-01-26T00:13:59.546Z,86.70
2023-01-26T00:14:59.503Z,92.00
2023-01-26T00:15:59.477Z,91.50
2023-01-26T00:16:59.403Z,91.70
2023-01-26T00:17:59.370Z,93.90
2023-01-26T00:18:59.312Z,89.90
2023-01-26T00:19:59.301Z,88.80
2023-01-26T00:20:59.219Z,89.50
2023-01-26T00:21:59.171Z,89.00
2023-01-26T00:22:59.118Z,87.40
2023-01-26T00:23:59.145Z,91.90
2023-01-26T00:24:59.031Z,89.70
2023-01-26T00:25:58.984Z,89.20
2023-01-26T00:26:58.929Z,88.10
2023-01-26T00:27:58.887Z,90.20
2023-01-26T00:28:58.837Z,92.10
2023-01-26T00:29:58.801Z,92.90
2023-01-26T00:30:58.749Z,89.30
2023-01-26T00:31:58.701Z,91.50
2023-01-26T00:32:58.646Z,94.60
2023-01-26T00:33:58.605Z,91.50
2023-01-26T00:34:58.554Z,91.50
2023-01-26T00:35:58.536Z,92.00
2023-01-26T00:36:58.461Z,94.20
2023-01-26T00:37:58.435Z,92.40
2023-01-26T00:38:58.368Z,91.00
2023-01-26T00:39:58.322Z,91.30
2023-01-26T00:40:58.275Z,91.90
2023-01-26T00:41:58.249Z,90.20
2023-01-26T00:42:58.181Z,89.20
2023-01-26T00:43:58.135Z,92.00
2023-01-26T00:44:58.085Z,90.90
2023-01-26T00:45:58.039Z,92.50
2023-01-26T00:46:58.001Z,89.80
2023-01-26T00:47:57.947Z,89.00
2023-01-26T00:48:57.897Z,86.80
2023-01-26T00:49:57.851Z,92.00
2023-01-26T00:50:57.801Z,94.70
2023-01-26T00:51:57.758Z,87.90
2023-01-26T00:52:57.715Z,95.90
2023-01-26T00:53:57.681Z,91.20
2023-01-26T00:54:57.611Z,90.90
2023-01-26T00:55:57.570Z,94.00
2023-01-26T00:56:57.519Z,93.00
2023-01-26T00:57:57.473Z,95.40
2023-01-26T00:58:57.422Z,93.00
2023-01-26T00:59:57.408Z,93.30
2023-01-26T01:00:57.385Z,97.30
2023-01-26T01:01:57.328Z,98.10
2023-01-26T01:02:57.235Z,97.60
2023-01-26T01:03:57.199Z,95.90
2023-01-26T01:04:57.143Z,94.00
2023-01-26T01:05:57.096Z,98.80
2023-01-26T01:06:57.058Z,97.70
2023-01-26T01:07:57.005Z,96.40
2023-01-26T01:08:56.966Z,97.60
2023-01-26T01:09:56.913Z,95.60
2023-01-26T01:10:56.870Z,96.20
2023-01-26T01:11:56.811Z,100.40
2023-01-26T01:12:56.949Z,95.90
2023-01-26T01:13:56.730Z,93.50
2023-01-26T01:14:56.668Z,95.70
2023-01-26T01:15:56.659Z,100.20
2023-01-26T01:16:56.579Z,97.10
2023-01-26T01:17:56.535Z,99.80
2023-01-26T01:18:56.482Z,94.30
2023-01-26T01:19:56.459Z,96.30
2023-01-26T01:20:56.395Z,96.90
2023-01-26T01:21:56.339Z,96.00
2023-01-26T01:22:56.291Z,100.40
2023-01-26T01:23:56.274Z,95.00
2023-01-26T01:24:56.195Z,94.20
2023-01-26T01:25:56.158Z,92.30
2023-01-26T01:26:56.110Z,92.40
2023-01-26T01:27:56.079Z,90.80
2023-01-26T01:28:56.011Z,95.60
2023-01-26T01:29:55.968Z,96.80
2023-01-26T01:30:55.927Z,97.40
2023-01-26T01:31:55.904Z,96.10
2023-01-26T01:32:55.819Z,100.50
2023-01-26T01:33:55.785Z,94.50
2023-01-26T01:34:55.720Z,97.50
2023-01-26T01:35:55.689Z,97.20
2023-01-26T01:36:55.631Z,96.40
2023-01-26T01:37:55.582Z,97.30
2023-01-26T01:38:55.531Z,95.80
2023-01-26T01:39:55.489Z,97.40
2023-01-26T01:40:55.441Z,100.30
2023-01-26T01:41:55.402Z,101.00
2023-01-26T01:42:55.342Z,101.10
2023-01-26T01:43:55.299Z,100.90
2023-01-26T01:44:55.254Z,99.60
2023-01-26T01:45:55.257Z,99.90
2023-01-26T01:46:55.202Z,99.50
2023-01-26T01:47:55.106Z,98.70
2023-01-26T01:48:55.062Z,96.20
2023-01-26T01:49:55.022Z,100.90
2023-01-26T01:50:54.970Z,100.40
2023-01-26T01:51:54.942Z,98.00
2023-01-26T01:52:54.880Z,96.20
2023-01-26T01:53:54.828Z,98.00
2023-01-26T01:54:54.791Z,95.60
2023-01-26T01:55:54.729Z,98.20
2023-01-26T01:56:54.685Z,98.20
2023-01-26T01:57:54.650Z,95.30
2023-01-26T01:58:54.587Z,98.50
2023-01-26T01:59:54.549Z,98.90
2023-01-26T02:00:54.512Z,99.00
2023-01-26T02:01:54.470Z,100.00
2023-01-26T02:02:54.400Z,104.20
2023-01-26T02:03:54.371Z,99.50
2023-01-26T02:04:54.304Z,106.30
2023-01-26T02:05:54.261Z,102.80
2023-01-26T02:06:54.216Z,102.60
2023-01-26T02:07:54.163Z,102.50
2023-01-26T02:08:54.144Z,105.20
2023-01-26T02:09:54.070Z,100.30
2023-01-26T02:10:54.024Z,102.70
2023-01-26T02:11:53.972Z,106.00
2023-01-26T02:12:53.923Z,99.80
2023-01-26T02:13:53.886Z,98.70
2023-01-26T02:14:53.851Z,101.90
2023-01-26T02:15:53.821Z,104.40
2023-01-26T02:16:53.741Z,107.70
2023-01-26T02:17:53.700Z,106.00
2023-01-26T02:18:53.648Z,102.90
2023-01-26T02:19:53.595Z,105.80
2023-01-26T02:20:53.559Z,106.60
2023-01-26T02:21:53.502Z,105.20
2023-01-26T02:22:53.471Z,106.70
2023-01-26T02:23:53.446Z,105.90
2023-01-26T02:24:53.358Z,106.10
2023-01-26T02:25:53.312Z,105.90
2023-01-26T02:26:53.278Z,107.10
2023-01-26T02:27:53.219Z,110.10
2023-01-26T02:28:53.182Z,109.90
2023-01-26T02:29:53.131Z,109.50
2023-01-26T02:30:53.120Z,112.30
2023-01-26T02:31:53.126Z,109.20
2023-01-26T02:32:53.017Z,111.00
2023-01-26T02:33:52.935Z,110.10
2023-01-26T02:34:52.954Z,113.50
2023-01-26T02:35:52.843Z,105.40
2023-01-26T02:36:52.812Z,106.30
2023-01-26T02:37:52.745Z,107.70
2023-01-26T02:38:52.697Z,111.80
2023-01-26T02:39:52.663Z,112.20
2023-01-26T02:40:52.606Z,106.30
2023-01-26T02:41:52.555Z,111.70
2023-01-26T02:42:52.538Z,111.80
2023-01-26T02:43:52.460Z,111.60
2023-01-26T02:44:52.419Z,113.20
2023-01-26T02:45:52.369Z,107.70
2023-01-26T02:46:52.337Z,108.80
2023-01-26T02:47:52.276Z,110.60
2023-01-26T02:48:52.243Z,109.10
2023-01-26T02:49:52.178Z,108.50
2023-01-26T02:50:52.140Z,111.30
2023-01-26T02:51:52.101Z,109.60
2023-01-26T02:52:52.048Z,112.00
2023-01-26T02:53:51.989Z,112.30
2023-01-26T02:54:51.966Z,114.10
2023-01-26T02:55:51.895Z,114.40
2023-01-26T02:56:51.854Z,113.50
2023-01-26T02:57:51.806Z,120.70
2023-01-26T02:58:51.758Z,115.60
2023-01-26T02:59:51.721Z,120.10
2023-01-26T03:00:51.729Z,117.10
2023-01-26T03:01:51.672Z,116.80
2023-01-26T03:02:51.573Z,119.20
2023-01-26T03:03:51.532Z,124.70
2023-01-26T03:04:51.482Z,117.80
2023-01-26T03:05:51.439Z,119.50
2023-01-26T03:06:51.385Z,121.00
2023-01-26T03:07:51.334Z,127.40
2023-01-26T03:08:51.289Z,122.00
2023-01-26T03:09:51.240Z,124.30
2023-01-26T03:10:51.194Z,122.40
2023-01-26T03:11:51.155Z,119.70
2023-01-26T03:12:51.119Z,122.30
2023-01-26T03:13:51.053Z,124.10
2023-01-26T03:14:51.003Z,126.40
2023-01-26T03:15:51.001Z,121.40
2023-01-26T03:16:50.911Z,121.40
2023-01-26T03:17:50.864Z,122.20
2023-01-26T03:18:50.830Z,123.30
2023-01-26T03:19:50.762Z,119.50
2023-01-26T03:20:50.724Z,120.30
2023-01-26T03:21:50.668Z,122.30
2023-01-26T03:22:50.625Z,117.70
2023-01-26T03:23:50.613Z,115.20
2023-01-26T03:24:50.556Z,121.50
2023-01-26T03:25:50.484Z,120.90
2023-01-26T03:26:50.436Z,126.70
2023-01-26T03:27:50.393Z,123.00
2023-01-26T03:28:50.347Z,121.10
2023-01-26T03:29:50.312Z,120.80
2023-01-26T03:30:50.276Z,118.10
2023-01-26T03:31:50.197Z,119.00
2023-01-26T03:32:50.162Z,118.00
2023-01-26T03:33:50.112Z,124.70
2023-01-26T03:34:50.069Z,120.80
2023-01-26T03:35:50.027Z,120.50
2023-01-26T03:36:49.967Z,125.30
2023-01-26T03:37:49.921Z,120.70
2023-01-26T03:38:49.883Z,119.30
2023-01-26T03:39:49.820Z,120.50
2023-01-26T03:40:49.778Z,119.00
2023-01-26T03:41:49.745Z,119.10
2023-01-26T03:42:49.680Z,120.00
2023-01-26T03:43:49.634Z,114.30
2023-01-26T03:44:49.595Z,120.50
2023-01-26T03:45:49.549Z,118.20
2023-01-26T03:46:49.607Z,119.70
2023-01-26T03:47:49.442Z,124.10
2023-01-26T03:48:49.398Z,116.50
2023-01-26T03:49:49.350Z,120.40
2023-01-26T03:50:49.319Z,124.30
2023-01-26T03:51:49.255Z,119.70
2023-01-26T03:52:49.211Z,115.60
2023-01-26T03:53:49.165Z,116.30
2023-01-26T03:54:49.119Z,117.90
2023-01-26T03:55:49.069Z,116.20
2023-01-26T03:56:49.048Z,114.00
2023-01-26T03:57:48.981Z,112.10
2023-01-26T03:58:48.930Z,117.60
2023-01-26T03:59:48.878Z,111.50
2023-01-26T04:00:48.876Z,113.50
2023-01-26T04:01:48.801Z,109.90
2023-01-26T04:02:48.758Z,106.70
2023-01-26T04:03:48.689Z,112.20
2023-01-26T04:04:48.649Z,119.00
2023-01-26T04:05:48.622Z,109.30
2023-01-26T04:06:48.549Z,111.20
2023-01-26T04:07:48.502Z,110.40
2023-01-26T04:08:48.490Z,111.60
2023-01-26T04:09:48.412Z,109.90
2023-01-26T04:10:48.364Z,110.80
2023-01-26T04:11:48.312Z,112.40
2023-01-26T04:12:48.807Z,110.40
2023-01-26T04:13:48.229Z,111.40
2023-01-26T04:14:49.317Z,116.80
2023-01-26T04:15:48.128Z,110.20
2023-01-26T04:16:48.088Z,112.50
2023-01-26T04:17:48.031Z,107.70
2023-01-26T04:18:47.995Z,116.20
2023-01-26T04:19:47.947Z,119.80
2023-01-26T04:20:47.893Z,119.10
2023-01-26T04:21:47.844Z,119.50
2023-01-26T04:22:47.823Z,117.00
2023-01-26T04:23:47.782Z,117.00
2023-01-26T04:24:47.712Z,123.40
2023-01-26T04:25:47.672Z,120.40
2023-01-26T04:26:47.609Z,118.00
2023-01-26T04:27:47.566Z,121.10
2023-01-26T04:28:47.519Z,122.40
2023-01-26T04:29:47.468Z,121.20
2023-01-26T04:30:47.512Z,116.30
2023-01-26T04:31:47.446Z,113.50
2023-01-26T04:32:47.353Z,113.10
2023-01-26T04:33:47.288Z,110.10
2023-01-26T04:34:47.245Z,111.80
2023-01-26T04:35:47.186Z,108.50
2023-01-26T04:36:47.179Z,107.00
2023-01-26T04:37:47.087Z,114.20
2023-01-26T04:38:47.056Z,110.40
2023-01-26T04:39:47.000Z,109.50
2023-01-26T04:40:46.960Z,111.10
2023-01-26T04:41:46.911Z,113.90
2023-01-26T04:42:46.872Z,109.20
2023-01-26T04:43:46.806Z,112.60
2023-01-26T04:44:46.764Z,112.00
2023-01-26T04:45:46.760Z,106.60
2023-01-26T04:46:56.081Z,104.80
2023-01-26T04:47:46.619Z,106.60
2023-01-26T04:48:46.573Z,105.90
2023-01-26T04:49:46.539Z,102.70
2023-01-26T04:50:46.484Z,106.40
2023-01-26T04:51:46.443Z,104.50
2023-01-26T04:52:46.387Z,105.30
2023-01-26T04:53:46.359Z,110.80
2023-01-26T04:54:46.291Z,109.80
2023-01-26T04:55:46.253Z,104.50
2023-01-26T04:56:46.196Z,105.90
2023-01-26T04:57:46.145Z,104.10
2023-01-26T04:58:46.102Z,111.80
2023-01-26T04:59:46.067Z,109.10
2023-01-26T05:00:46.033Z,109.80
2023-01-26T05:01:45.960Z,109.40
2023-01-26T05:02:45.919Z,110.30
2023-01-26T05:03:45.866Z,108.20
2023-01-26T05:04:45.822Z,110.30
2023-01-26T05:05:45.790Z,113.90
2023-01-26T05:06:45.743Z,115.90
2023-01-26T05:07:45.679Z,109.50
2023-01-26T05:08:45.634Z,114.40
2023-01-26T05:09:45.585Z,113.60
2023-01-26T05:10:45.541Z,116.50
2023-01-26T05:11:45.492Z,111.60
2023-01-26T05:12:45.459Z,115.60
2023-01-26T05:13:45.397Z,115.10
2023-01-26T05:14:45.354Z,121.10
2023-01-26T05:15:45.308Z,115.80
2023-01-26T05:16:45.273Z,119.30
2023-01-26T05:17:45.211Z,122.50
2023-01-26T05:18:45.189Z,122.70
2023-01-26T05:19:45.123Z,121.90
2023-01-26T05:20:45.084Z,129.50
2023-01-26T05:21:45.021Z,128.10
2023-01-26T05:22:44.992Z,128.70
2023-01-26T05:23:44.928Z,132.40
2023-01-26T05:24:44.909Z,131.80
2023-01-26T05:25:44.836Z,131.00
2023-01-26T05:26:44.798Z,127.30
2023-01-26T05:27:44.739Z,132.90
2023-01-26T05:28:44.696Z,132.80
2023-01-26T05:29:44.666Z,136.40
2023-01-26T05:30:44.628Z,133.30
2023-01-26T05:31:44.587Z,136.20
2023-01-26T05:32:44.515Z,137.40
2023-01-26T05:33:44.470Z,138.40
2023-01-26T05:34:44.423Z,148.40
2023-01-26T05:35:44.376Z,144.60
2023-01-26T05:36:44.320Z,138.00
2023-01-26T05:37:44.277Z,144.90
2023-01-26T05:38:44.234Z,154.80
2023-01-26T05:39:44.184Z,166.40
2023-01-26T05:40:44.132Z,156.90
2023-01-26T05:41:44.097Z,150.10
2023-01-26T05:42:44.080Z,149.50
2023-01-26T05:43:43.992Z,136.60
2023-01-26T05:44:43.948Z,142.70
2023-01-26T05:45:43.951Z,134.70
2023-01-26T05:46:43.851Z,136.20
2023-01-26T05:47:43.827Z,133.50
2023-01-26T05:48:43.766Z,136.30
2023-01-26T05:49:43.715Z,124.10
2023-01-26T05:50:43.679Z,122.50
2023-01-26T05:51:43.615Z,117.80
2023-01-26T05:52:43.579Z,117.40
2023-01-26T05:53:43.530Z,121.40
2023-01-26T05:54:43.486Z,122.90
2023-01-26T05:55:43.449Z,129.50
2023-01-26T05:56:43.387Z,129.20
2023-01-26T05:57:43.355Z,131.60
2023-01-26T05:58:43.306Z,131.60
2023-01-26T05:59:43.262Z,134.70
2023-01-26T06:00:43.208Z,122.70
2023-01-26T06:01:43.158Z,126.30
2023-01-26T06:02:43.101Z,141.20
2023-01-26T06:03:43.055Z,135.80
2023-01-26T06:04:43.021Z,134.30
2023-01-26T06:05:42.963Z,132.80
2023-01-26T06:06:42.918Z,131.20
2023-01-26T06:07:42.869Z,128.00
2023-01-26T06:08:42.825Z,125.30
2023-01-26T06:09:42.793Z,125.40
2023-01-26T06:10:42.735Z,128.80
2023-01-26T06:11:42.700Z,123.00
2023-01-26T06:12:42.646Z,120.60
2023-01-26T06:13:42.593Z,124.70
2023-01-26T06:14:42.548Z,126.10
2023-01-26T06:15:42.503Z,129.50
2023-01-26T06:16:42.496Z,123.90
2023-01-26T06:17:42.402Z,124.70
2023-01-26T06:18:42.355Z,121.20
2023-01-26T06:19:42.314Z,123.20
2023-01-26T06:20:44.203Z,129.60
2023-01-26T06:21:42.223Z,124.60
2023-01-26T06:22:42.182Z,124.20
2023-01-26T06:23:42.119Z,118.70
2023-01-26T06:24:42.097Z,115.30
2023-01-26T06:25:42.044Z,122.00
2023-01-26T06:26:41.981Z,121.70
2023-01-26T06:27:42.031Z,119.40
2023-01-26T06:28:41.884Z,111.90
2023-01-26T06:29:41.841Z,115.10
2023-01-26T06:30:41.899Z,113.40
2023-01-26T06:31:41.802Z,118.20
2023-01-26T06:32:41.704Z,117.50
2023-01-26T06:33:41.657Z,117.70
2023-01-26T06:34:41.604Z,118.90
2023-01-26T06:35:41.557Z,112.80
2023-01-26T06:36:41.528Z,111.00
2023-01-26T06:37:41.465Z,108.20
2023-01-26T06:38:41.413Z,107.10
2023-01-26T06:39:41.372Z,115.40
2023-01-26T06:40:41.331Z,111.10
2023-01-26T06:41:41.278Z,109.50
2023-01-26T06:42:41.241Z,109.10
2023-01-26T06:43:41.182Z,113.30
2023-01-26T06:44:41.150Z,115.00
2023-01-26T06:45:41.091Z,109.00
2023-01-26T06:46:41.038Z,109.60
2023-01-26T06:47:40.994Z,108.80
2023-01-26T06:48:40.962Z,105.80
2023-01-26T06:49:40.902Z,105.90
2023-01-26T06:50:40.856Z,102.30
2023-01-26T06:51:40.814Z,108.90
2023-01-26T06:52:42.235Z,110.40
2023-01-26T06:53:40.715Z,113.40
2023-01-26T06:54:40.680Z,120.60
2023-01-26T06:55:40.619Z,113.60
2023-01-26T06:56:40.574Z,121.40
2023-01-26T06:57:40.526Z,119.30
2023-01-26T06:58:40.491Z,122.00
2023-01-26T06:59:40.440Z,121.00
2023-01-26T07:00:40.402Z,117.70
2023-01-26T07:01:40.351Z,107.40
2023-01-26T07:02:40.300Z,108.60
2023-01-26T07:03:40.245Z,107.40
2023-01-26T07:04:40.196Z,114.20
2023-01-26T07:05:40.164Z,100.50
2023-01-26T07:06:40.136Z,110.60
2023-01-26T07:07:40.056Z,109.30
2023-01-26T07:08:40.007Z,104.30
2023-01-26T07:09:39.973Z,105.80
2023-01-26T07:10:39.921Z,109.90
2023-01-26T07:11:39.870Z,111.60
2023-01-26T07:12:39.840Z,109.40
2023-01-26T07:13:39.779Z,112.10
2023-01-26T07:14:39.735Z,107.90
2023-01-26T07:15:39.683Z,106.80
2023-01-26T07:16:39.676Z,112.70
2023-01-26T07:17:39.609Z,104.90
2023-01-26T07:18:39.557Z,101.50
2023-01-26T07:19:39.496Z,103.80
2023-01-26T07:20:39.459Z,100.70
2023-01-26T07:21:39.404Z,102.60
2023-01-26T07:22:39.368Z,102.50
2023-01-26T07:23:39.422Z,104.90
2023-01-26T07:24:39.258Z,104.10
2023-01-26T07:25:39.221Z,103.20
2023-01-26T07:26:39.166Z,101.10
2023-01-26T07:27:39.122Z,107.30
2023-01-26T07:28:40.277Z,100.90
2023-01-26T07:29:39.032Z,103.70
2023-01-26T07:30:39.028Z,108.40
2023-01-26T07:31:38.943Z,100.60
2023-01-26T07:32:38.883Z,105.60
2023-01-26T07:33:38.845Z,104.10
2023-01-26T07:34:38.804Z,103.80
2023-01-26T07:35:38.751Z,100.60
2023-01-26T07:36:38.700Z,102.70
2023-01-26T07:37:38.661Z,104.10
2023-01-26T07:38:38.622Z,100.30
2023-01-26T07:39:38.560Z,102.50
2023-01-26T07:40:38.521Z,103.00
2023-01-26T07:41:38.470Z,100.70
2023-01-26T07:42:38.421Z,101.30
2023-01-26T07:43:38.468Z,101.90
2023-01-26T07:44:38.325Z,109.90
2023-01-26T07:45:38.299Z,102.10
2023-01-26T07:46:38.317Z,105.40
2023-01-26T07:47:38.186Z,104.50
2023-01-26T07:48:38.137Z,101.10
2023-01-26T07:49:38.133Z,99.40
2023-01-26T07:50:38.076Z,96.80
2023-01-26T07:51:38.014Z,101.30
2023-01-26T07:52:37.949Z,94.50
2023-01-26T07:53:37.910Z,92.90
2023-01-26T07:54:37.858Z,89.50
2023-01-26T07:55:37.812Z,91.80
2023-01-26T07:56:37.772Z,89.70
2023-01-26T07:57:37.728Z,85.70
2023-01-26T07:58:37.671Z,87.30
2023-01-26T07:59:37.640Z,86.80
2023-01-26T08:00:37.590Z,83.80
2023-01-26T08:01:37.556Z,83.10
2023-01-26T08:02:37.529Z,82.60
2023-01-26T08:03:37.440Z,82.40
2023-01-26T08:04:37.411Z,82.50
2023-01-26T08:05:37.365Z,83.00
2023-01-26T08:06:37.297Z,82.80
2023-01-26T08:07:37.259Z,81.50
2023-01-26T08:08:37.206Z,85.10
2023-01-26T08:09:37.161Z,82.20
2023-01-26T08:10:37.121Z,79.50
2023-01-26T08:11:37.073Z,78.20
2023-01-26T08:12:40.144Z,83.70
2023-01-26T08:13:36.978Z,83.30
2023-01-26T08:14:46.502Z,83.90
2023-01-26T08:15:36.881Z,81.20
2023-01-26T08:16:36.912Z,81.20
2023-01-26T08:17:36.790Z,81.60
2023-01-26T08:18:36.739Z,83.60
2023-01-26T08:19:37.576Z,79.90
2023-01-26T08:20:36.651Z,82.40
2023-01-26T08:21:36.614Z,83.70
2023-01-26T08:22:36.556Z,82.00
2023-01-26T08:23:36.511Z,82.30
2023-01-26T08:24:36.460Z,84.60
2023-01-26T08:25:36.418Z,83.50
2023-01-26T08:26:36.376Z,79.30
2023-01-26T08:27:36.340Z,82.10
2023-01-26T08:28:36.288Z,78.70
2023-01-26T08:29:36.233Z,77.20
2023-01-26T08:30:36.183Z,81.80
2023-01-26T08:31:36.171Z,82.40
2023-01-26T08:32:36.088Z,79.60
2023-01-26T08:33:36.060Z,83.20
2023-01-26T08:34:36.007Z,82.30
2023-01-26T08:35:35.956Z,81.30
2023-01-26T08:36:35.904Z,83.30
2023-01-26T08:37:35.865Z,80.10
2023-01-26T08:38:35.826Z,82.50
2023-01-26T08:39:35.780Z,79.50
2023-01-26T08:40:35.719Z,82.70
2023-01-26T08:41:35.679Z,83.20
2023-01-26T08:42:35.626Z,82.50
2023-01-26T08:43:35.588Z,79.30
2023-01-26T08:44:35.536Z,82.50
2023-01-26T08:45:35.518Z,79.20
2023-01-26T08:46:35.438Z,84.60
2023-01-26T08:47:35.408Z,83.50
2023-01-26T08:48:35.343Z,88.00
2023-01-26T08:49:35.308Z,84.90
2023-01-26T08:50:35.260Z,89.00
2023-01-26T08:51:35.222Z,82.50
2023-01-26T08:52:35.165Z,81.40
2023-01-26T08:53:35.120Z,84.30
2023-01-26T08:54:35.079Z,83.00
2023-01-26T08:55:35.037Z,78.70
2023-01-26T08:56:34.992Z,81.30
2023-01-26T08:57:34.939Z,81.40
2023-01-26T08:58:34.908Z,79.20
2023-01-26T08:59:34.842Z,78.30
2023-01-26T09:00:34.805Z,78.50
2023-01-26T09:01:34.754Z,74.30
2023-01-26T09:02:34.868Z,71.00
2023-01-26T09:03:34.668Z,73.30
2023-01-26T09:04:34.623Z,73.40
2023-01-26T09:05:34.579Z,70.80
2023-01-26T09:06:34.526Z,67.60
2023-01-26T09:07:34.479Z,68.20
2023-01-26T09:08:34.423Z,66.20
2023-01-26T09:09:34.402Z,63.90
2023-01-26T09:10:34.333Z,67.70
2023-01-26T09:11:34.304Z,64.80
2023-01-26T09:12:34.244Z,64.40
2023-01-26T09:13:34.196Z,61.90
2023-01-26T09:14:34.147Z,63.20
2023-01-26T09:15:34.107Z,65.30
2023-01-26T09:16:34.191Z,61.70
2023-01-26T09:17:34.022Z,62.40
2023-01-26T09:18:34.008Z,65.30
2023-01-26T09:19:33.925Z,65.10
2023-01-26T09:20:33.876Z,63.20
2023-01-26T09:21:33.845Z,65.10
2023-01-26T09:22:33.798Z,64.40
2023-01-26T09:23:33.745Z,61.30
2023-01-26T09:24:33.688Z,65.70
2023-01-26T09:25:33.649Z,65.70
2023-01-26T09:26:33.600Z,64.60
2023-01-26T09:27:33.586Z,64.80
2023-01-26T09:28:33.528Z,63.70
2023-01-26T09:29:33.466Z,63.30
2023-01-26T09:30:33.568Z,62.80
2023-01-26T09:31:33.538Z,64.90
2023-01-26T09:32:33.321Z,62.60
2023-01-26T09:33:33.274Z,66.40
2023-01-26T09:34:33.238Z,63.60
2023-01-26T09:35:33.252Z,66.50
2023-01-26T09:36:33.154Z,67.70
2023-01-26T09:37:33.097Z,68.20
2023-01-26T09:38:33.054Z,68.40
2023-01-26T09:39:33.032Z,65.80
2023-01-26T09:40:32.967Z,71.70
2023-01-26T09:41:32.922Z,72.50
2023-01-26T09:42:32.859Z,72.40
2023-01-26T09:43:32.816Z,70.70
2023-01-26T09:44:32.769Z,68.20
2023-01-26T09:45:32.729Z,70.40
2023-01-26T09:46:32.810Z,74.80
2023-01-26T09:47:32.640Z,72.70
2023-01-26T09:48:32.592Z,71.30
2023-01-26T09:49:32.549Z,72.90
2023-01-26T09:50:32.518Z,75.00
2023-01-26T09:51:32.468Z,71.70
2023-01-26T09:52:32.407Z,75.30
2023-01-26T09:53:32.363Z,76.80
2023-01-26T09:54:32.316Z,78.30
2023-01-26T09:55:32.287Z,80.00
2023-01-26T09:56:32.218Z,82.80
2023-01-26T09:57:32.195Z,83.60
2023-01-26T09:58:32.126Z,79.30
2023-01-26T09:59:32.133Z,81.90
2023-01-26T10:00:32.032Z,85.50
2023-01-26T10:01:32.038Z,83.30
2023-01-26T10:02:31.986Z,86.80
2023-01-26T10:03:31.909Z,86.10
2023-01-26T10:04:31.855Z,86.70
2023-01-26T10:05:31.826Z,87.30
2023-01-26T10:06:31.770Z,88.50
2023-01-26T10:07:31.731Z,91.50
2023-01-26T10:08:31.663Z,86.10
2023-01-26T10:09:31.631Z,87.20
2023-01-26T10:10:31.608Z,85.60
2023-01-26T10:11:31.534Z,84.30
2023-01-26T10:12:31.509Z,92.20
2023-01-26T10:13:31.445Z,88.80
2023-01-26T10:14:31.402Z,91.60
2023-01-26T10:15:31.378Z,92.20
2023-01-26T10:16:31.306Z,85.80
2023-01-26T10:17:31.270Z,91.30
2023-01-26T10:18:31.230Z,86.30
2023-01-26T10:19:31.164Z,89.10
2023-01-26T10:20:31.164Z,86.90
2023-01-26T10:21:31.073Z,87.60
2023-01-26T10:22:31.026Z,86.70
2023-01-26T10:23:30.990Z,86.90
2023-01-26T10:24:30.938Z,84.60
2023-01-26T10:25:30.903Z,89.00
2023-01-26T10:26:30.861Z,92.70
2023-01-26T10:27:30.808Z,93.00
2023-01-26T10:28:30.757Z,88.60
2023-01-26T10:29:30.708Z,86.40
2023-01-26T10:30:30.685Z,88.40
2023-01-26T10:31:30.686Z,85.90
2023-01-26T10:32:30.572Z,90.20
2023-01-26T10:33:30.522Z,87.10
2023-01-26T10:34:30.496Z,86.70
2023-01-26T10:35:30.431Z,91.30
2023-01-26T10:36:30.398Z,93.90
2023-01-26T10:37:30.343Z,94.70
2023-01-26T10:38:30.307Z,86.40
2023-01-26T10:39:30.247Z,86.10
2023-01-26T10:40:30.214Z,87.60
2023-01-26T10:41:30.177Z,87.60
2023-01-26T10:42:30.112Z,90.80
2023-01-26T10:43:30.070Z,84.80
2023-01-26T10:44:30.017Z,84.50
2023-01-26T10:45:29.981Z,84.00
2023-01-26T10:46:29.955Z,83.30
2023-01-26T10:47:39.147Z,83.10
2023-01-26T10:48:29.839Z,84.00
2023-01-26T10:49:29.790Z,82.50
2023-01-26T10:50:29.767Z,86.90
2023-01-26T10:51:29.726Z,83.10
2023-01-26T10:52:29.653Z,84.80
2023-01-26T10:53:29.632Z,82.90
2023-01-26T10:54:29.570Z,86.00
2023-01-26T10:55:29.516Z,87.00
2023-01-26T10:56:29.476Z,82.80
2023-01-26T10:57:29.479Z,80.20
2023-01-26T10:58:29.382Z,85.40
2023-01-26T10:59:29.331Z,83.80
2023-01-26T11:00:29.299Z,75.60
2023-01-26T11:01:29.263Z,77.90
2023-01-26T11:02:29.283Z,80.90
2023-01-26T11:03:29.175Z,77.70
2023-01-26T11:04:29.109Z,76.40
2023-01-26T11:05:29.080Z,79.30
2023-01-26T11:06:29.045Z,75.70
2023-01-26T11:07:28.968Z,74.50
2023-01-26T11:08:28.929Z,71.70
2023-01-26T11:09:28.909Z,73.40
2023-01-26T11:10:28.835Z,72.50
2023-01-26T11:11:28.802Z,66.80
2023-01-26T11:12:28.743Z,67.30
2023-01-26T11:13:28.697Z,64.70
2023-01-26T11:14:28.671Z,64.80
2023-01-26T11:15:28.616Z,64.00
2023-01-26T11:16:28.580Z,62.30
2023-01-26T11:17:28.513Z,63.60
2023-01-26T11:18:28.470Z,59.80
2023-01-26T11:19:28.419Z,60.30
2023-01-26T11:20:28.399Z,59.00
2023-01-26T11:21:28.331Z,62.80
2023-01-26T11:22:28.288Z,62.20
2023-01-26T11:23:28.239Z,59.40
2023-01-26T11:24:28.217Z,59.60
2023-01-26T11:25:28.175Z,59.80
2023-01-26T11:26:28.102Z,59.20
2023-01-26T11:27:28.059Z,57.20
2023-01-26T11:28:28.015Z,60.50
2023-01-26T11:29:27.973Z,62.50
2023-01-26T11:30:27.934Z,61.10
2023-01-26T11:31:27.908Z,62.10
2023-01-26T11:32:27.832Z,61.80
2023-01-26T11:33:27.810Z,59.20
2023-01-26T11:34:27.740Z,60.50
2023-01-26T11:35:27.692Z,55.90
2023-01-26T11:36:27.651Z,58.80
2023-01-26T11:37:27.619Z,59.50
2023-01-26T11:38:27.572Z,57.10
2023-01-26T11:39:27.526Z,57.40
2023-01-26T11:40:27.473Z,59.60
2023-01-26T11:41:27.443Z,59.60
2023-01-26T11:42:27.379Z,57.80
2023-01-26T11:43:27.355Z,61.50
2023-01-26T11:44:27.291Z,59.80
2023-01-26T11:45:27.320Z,58.90
2023-01-26T11:46:27.215Z,61.20
2023-01-26T11:47:27.147Z,60.90
2023-01-26T11:48:27.127Z,59.60
2023-01-26T11:49:27.058Z,58.60
2023-01-26T11:50:27.026Z,59.00
2023-01-26T11:51:27.019Z,61.70
2023-01-26T11:52:26.924Z,60.20
2023-01-26T11:53:26.909Z,60.90
2023-01-26T11:54:26.838Z,60.40
2023-01-26T11:55:26.795Z,61.70
2023-01-26T11:56:26.757Z,60.00
2023-01-26T11:57:26.696Z,58.10
2023-01-26T11:58:26.649Z,59.20
2023-01-26T11:59:26.606Z,60.70
2023-01-26T12:00:30.455Z,61.70
2023-01-26T12:01:26.531Z,60.80
2023-01-26T12:02:27.940Z,59.10
2023-01-26T12:03:26.433Z,58.30
2023-01-26T12:04:26.384Z,59.30
2023-01-26T12:05:26.331Z,62.90
2023-01-26T12:06:26.307Z,59.20
2023-01-26T12:07:26.237Z,56.80
2023-01-26T12:08:26.223Z,55.40
2023-01-26T12:09:26.149Z,55.40
2023-01-26T12:10:26.106Z,55.30
2023-01-26T12:11:26.069Z,55.00
2023-01-26T12:12:26.020Z,49.80
2023-01-26T12:13:25.966Z,53.60
2023-01-26T12:14:25.945Z,50.40
2023-01-26T12:15:25.878Z,49.70
2023-01-26T12:16:25.842Z,49.00
2023-01-26T12:17:25.795Z,48.50
2023-01-26T12:18:38.117Z,45.90
2023-01-26T12:19:25.703Z,48.20
2023-01-26T12:20:25.673Z,49.30
2023-01-26T12:21:25.605Z,47.60
2023-01-26T12:22:25.605Z,48.50
2023-01-26T12:23:25.530Z,44.60
2023-01-26T12:25:08.246Z,44.90
2023-01-26T12:25:25.423Z,45.10
2023-01-26T12:26:25.453Z,45.20
2023-01-26T12:27:25.330Z,44.50
2023-01-26T12:28:25.309Z,43.50
2023-01-26T12:29:25.243Z,44.80
2023-01-26T12:30:25.321Z,45.10
2023-01-26T12:31:25.249Z,43.90
2023-01-26T12:32:25.105Z,43.60
2023-01-26T12:33:25.081Z,42.20
2023-01-26T12:34:25.032Z,43.10
2023-01-26T12:35:24.970Z,42.10
2023-01-26T12:36:24.961Z,42.10
2023-01-26T12:37:24.893Z,41.70
2023-01-26T12:38:24.850Z,43.90
2023-01-26T12:39:24.788Z,42.20
2023-01-26T12:40:24.939Z,43.30